Time;durP1;ratioP1;P1;durP2;ratioP2;P2;SDS_P1;SDS_P2;PMS_P1;PMS_P2;Temp;Humidity;BMP_temperature;BMP_pressure;BME280_temperature;BME280_humidity;BME280_pressure;Samples;Min_cycle;Max_cycle;Signal;HPM_P1;HPM_P2
2022/09/11 00:00:09;;;;;;;;;;;;;;;;;;350038;28;936;-64
2022/09/11 00:00:20;;;;;;;;;;;;;;;;;;350135;28;845;-64
2022/09/11 00:00:30;;;;;;;;;;;;;;;;;;350048;28;960;-65
2022/09/11 00:00:40;;;;;;;;;;;;;;;;;;350020;28;920;-64
2022/09/11 00:00:51;;;;;;;;;;;;;;;;;;350020;28;971;-65
2022/09/11 00:01:02;;;;;;;;;;;;;;;;;;350071;28;995;-64
2022/09/11 00:01:13;;;;;;;;;;;;;;;;;;350066;28;931;-64
2022/09/11 00:01:24;;;;;;;;;;;;;;;;;;350053;28;913;-64
2022/09/11 00:01:35;;;;;;;;;;;;;;;;;;350068;28;975;-65
2022/09/11 00:01:45;;;;;;;;;;;;;;;;;;349974;28;948;-65
2022/09/11 00:01:56;;;;;;;;;;;;;;;;;;350072;28;794;-65
2022/09/11 00:02:06;;;;;;;;;;;;;;;;;;350073;28;928;-64
2022/09/11 00:02:16;;;;;;;;;;;;;;;;;;350063;28;996;-64
2022/09/11 00:02:26;;;;;;;;;;;;;;;;;;350101;28;821;-65
2022/09/11 00:02:36;;;;;;;;;;;;;;;;;;349964;28;924;-65
2022/09/11 00:02:47;;;;;;;;;;;;;;;;;;349988;28;928;-64
2022/09/11 00:02:57;;;;;;;;;;;;;;;;;;350042;28;983;-65
2022/09/11 00:03:08;;;;;;;;;;;;;;;;;;350095;28;956;-65
2022/09/11 00:03:19;;;;;;;;;;;;;;;;;;350149;28;580;-65
2022/09/11 00:03:30;;;;;;;;;;;;;;;;;;350001;28;924;-65
2022/09/11 00:03:41;;;;;;;;;;;;;;;;;;350031;28;992;-65
2022/09/11 00:03:53;;;;;;;;;;;;;;;;;;349921;28;1294;-65
2022/09/11 00:04:04;;;;;;;;;;;;;;;;;;349362;28;1800;-65
2022/09/11 00:04:15;;;;;;;;;;;;;;;;;;349675;28;1502;-65
2022/09/11 00:04:25;;;;;;;;;;;;;;;;;;349997;28;924;-65
2022/09/11 00:04:35;;;;;;;;;;;;;;;;;;350027;28;925;-64
2022/09/11 00:04:46;;;;;;;;;;;;;;;;;;350005;28;849;-65
2022/09/11 00:04:57;;;;;;;;;;;;;;;;;;350021;28;984;-64
2022/09/11 00:05:08;;;;;;;;;;;;;;;;;;350024;28;928;-65
2022/09/11 00:05:18;;;;;;;;;;;;;;;;;;350051;28;1003;-64
2022/09/11 00:05:29;;;;;;;;;;;;;;;;;;349974;28;1101;-65
2022/09/11 00:05:40;;;;;;;;;;;;;;;;;;349974;28;1066;-65
2022/09/11 00:05:50;;;;;;;;;;;;;;;;;;350013;28;944;-64
2022/09/11 00:06:02;;;;;;;;;;;;;;;;;;350039;28;848;-65
2022/09/11 00:06:14;;;;;;;;;;;;;;;;;;349996;28;999;-65
2022/09/11 00:06:25;;;;;;;;;;;;;;;;;;350030;28;865;-65
2022/09/11 00:06:36;;;;;;;;;;;;;;;;;;350018;28;924;-65
2022/09/11 00:06:46;;;;;;;;;;;;;;;;;;349970;28;987;-65
2022/09/11 00:06:56;;;;;;;;;;;;;;;;;;349951;28;936;-65
2022/09/11 00:07:06;;;;;;;;;;;;;;;;;;350032;28;959;-65
2022/09/11 00:07:16;;;;;;;;;;;;;;;;;;350019;28;835;-64
2022/09/11 00:07:27;;;;;;;;;;;;;;;;;;350056;28;952;-65
2022/09/11 00:07:37;;;;;;;;;;;;;;;;;;350038;28;932;-65
2022/09/11 00:07:47;;;;;;;;;;;;;;;;;;350011;28;928;-65
2022/09/11 00:07:57;;;;;;;;;;;;;;;;;;349989;28;917;-65
2022/09/11 00:08:10;;;;;;;;;;;;;;;;;;350081;28;778;-64
2022/09/11 00:08:20;;;;;;;;;;;;;;;;;;350043;28;1003;-64
2022/09/11 00:08:31;;;;;;;;;;;;;;;;;;350011;28;1106;-65
2022/09/11 00:08:42;;;;;;;;;;;;;;;;;;349989;28;928;-65
2022/09/11 00:08:56;;;;;;;;;;;;;;;;;;350071;28;948;-65
2022/09/11 00:09:06;;;;;;;;;;;;;;;;;;350007;28;987;-64
2022/09/11 00:09:16;;;;;;;;;;;;;;;;;;350000;28;1046;-64
2022/09/11 00:09:27;;;;;;;;;;;;;;;;;;350030;28;963;-65
2022/09/11 00:09:37;;;;;;;;;;;;;;;;;;350085;28;856;-64
2022/09/11 00:09:47;;;;;;;;;;;;;;;;;;350018;28;983;-65
2022/09/11 00:09:57;;;;;;;;;;;;;;;;;;349992;28;949;-64
2022/09/11 00:10:08;;;;;;;;;;;;;;;;;;350041;28;826;-64
2022/09/11 00:10:18;;;;;;;;;;;;;;;;;;350032;28;920;-65
2022/09/11 00:10:28;;;;;;;;;;;;;;;;;;350044;28;1003;-64
2022/09/11 00:10:39;;;;;;;;;;;;;;;;;;350032;28;928;-65
2022/09/11 00:10:49;;;;;;;;;;;;;;;;;;349947;28;964;-64
2022/09/11 00:11:07;;;;;;;;;;;;;;;;;;350039;28;928;-65
2022/09/11 00:11:19;;;;;;;;;;;;;;;;;;350058;28;928;-65
2022/09/11 00:11:40;;;;;;;;;;;;;;;;;;350087;28;836;-65
2022/09/11 00:11:50;;;;;;;;;;;;;;;;;;349974;28;971;-65
2022/09/11 00:12:01;;;;;;;;;;;;;;;;;;350016;28;1091;-65
2022/09/11 00:12:11;;;;;;;;;;;;;;;;;;350043;28;924;-65
2022/09/11 00:12:21;;;;;;;;;;;;;;;;;;350024;28;989;-64
2022/09/11 00:12:32;;;;;;;;;;;;;;;;;;350097;28;873;-64
2022/09/11 00:12:42;;;;;;;;;;;;;;;;;;349998;28;967;-64
2022/09/11 00:12:52;;;;;;;;;;;;;;;;;;349993;28;996;-65
2022/09/11 00:13:03;;;;;;;;;;;;;;;;;;350030;28;941;-64
2022/09/11 00:13:15;;;;;;;;;;;;;;;;;;350012;28;932;-65
2022/09/11 00:13:25;;;;;;;;;;;;;;;;;;350068;28;948;-64
2022/09/11 00:13:36;;;;;;;;;;;;;;;;;;350015;28;964;-65
2022/09/11 00:13:48;;;;;;;;;;;;;;;;;;350001;28;976;-64
2022/09/11 00:13:58;;;;;;;;;;;;;;;;;;350082;28;846;-64
2022/09/11 00:14:10;;;;;;;;;;;;;;;;;;350072;28;944;-65
2022/09/11 00:14:21;;;;;;;;;;;;;;;;;;350058;28;952;-65
2022/09/11 00:14:31;;;;;;;;;;;;;;;;;;349991;28;915;-64
2022/09/11 00:14:41;;;;;;;;;;;;;;;;;;350048;28;929;-64
2022/09/11 00:14:51;;;;;;;;;;;;;;;;;;349372;28;1769;-64
2022/09/11 00:15:02;;;;;;;;;;;;;;;;;;348753;28;1705;-65
2022/09/11 00:15:12;;;;;;;;;;;;;;;;;;348542;28;1019;-64
2022/09/11 00:15:22;;;;;;;;;;;;;;;;;;348665;28;988;-64
2022/09/11 00:15:39;;;;;;;;;;;;;;;;;;348637;28;748;-65
2022/09/11 00:15:50;;;;;;;;;;;;;;;;;;348605;28;1123;-65
2022/09/11 00:16:02;;;;;;;;;;;;;;;;;;348624;28;948;-65
2022/09/11 00:16:26;;;;;;;;;;;;;;;;;;348670;28;987;-65
2022/09/11 00:16:40;;;;;;;;;;;;;;;;;;348663;28;988;-64
2022/09/11 00:16:50;;;;;;;;;;;;;;;;;;348609;28;940;-64
2022/09/11 00:17:00;;;;;;;;;;;;;;;;;;348651;28;1075;-65
2022/09/11 00:17:10;;;;;;;;;;;;;;;;;;348618;28;1036;-65
2022/09/11 00:17:20;;;;;;;;;;;;;;;;;;348658;28;976;-65
2022/09/11 00:17:31;;;;;;;;;;;;;;;;;;348607;28;917;-65
2022/09/11 00:17:41;;;;;;;;;;;;;;;;;;348549;28;1007;-64
2022/09/11 00:17:51;;;;;;;;;;;;;;;;;;348676;28;932;-64
2022/09/11 00:18:01;;;;;;;;;;;;;;;;;;348700;28;968;-64
2022/09/11 00:18:14;;;;;;;;;;;;;;;;;;348645;28;953;-65
2022/09/11 00:18:25;;;;;;;;;;;;;;;;;;348623;28;925;-65
2022/09/11 00:18:35;;;;;;;;;;;;;;;;;;348673;28;756;-65
2022/09/11 00:18:46;;;;;;;;;;;;;;;;;;348662;28;995;-65
2022/09/11 00:18:57;;;;;;;;;;;;;;;;;;348575;28;940;-65
2022/09/11 00:19:10;;;;;;;;;;;;;;;;;;348634;28;941;-65
2022/09/11 00:19:20;;;;;;;;;;;;;;;;;;348616;28;769;-65
2022/09/11 00:19:31;;;;;;;;;;;;;;;;;;348697;28;849;-65
2022/09/11 00:19:41;;;;;;;;;;;;;;;;;;348412;28;1806;-65
2022/09/11 00:19:51;;;;;;;;;;;;;;;;;;348625;28;896;-65
2022/09/11 00:20:03;;;;;;;;;;;;;;;;;;348636;28;1008;-64
2022/09/11 00:20:13;;;;;;;;;;;;;;;;;;348664;28;909;-64
2022/09/11 00:20:23;;;;;;;;;;;;;;;;;;348701;28;837;-65
2022/09/11 00:20:34;;;;;;;;;;;;;;;;;;348681;28;980;-65
2022/09/11 00:20:51;;;;;;;;;;;;;;;;;;348610;28;980;-65
2022/09/11 00:21:03;;;;;;;;;;;;;;;;;;348621;28;984;-65
2022/09/11 00:21:14;;;;;;;;;;;;;;;;;;348657;28;806;-64
2022/09/11 00:21:25;;;;;;;;;;;;;;;;;;348672;28;944;-65
2022/09/11 00:21:35;;;;;;;;;;;;;;;;;;348570;28;1027;-65
2022/09/11 00:21:46;;;;;;;;;;;;;;;;;;348679;28;868;-64
2022/09/11 00:21:56;;;;;;;;;;;;;;;;;;348715;28;857;-65
2022/09/11 00:22:06;;;;;;;;;;;;;;;;;;348627;28;983;-64
2022/09/11 00:22:16;;;;;;;;;;;;;;;;;;348646;28;956;-65
2022/09/11 00:22:27;;;;;;;;;;;;;;;;;;348630;28;897;-65
2022/09/11 00:22:37;;;;;;;;;;;;;;;;;;348633;28;932;-64
2022/09/11 00:22:47;;;;;;;;;;;;;;;;;;348655;28;913;-65
2022/09/11 00:22:58;;;;;;;;;;;;;;;;;;348630;28;944;-64
2022/09/11 00:23:08;;;;;;;;;;;;;;;;;;348664;28;979;-64
2022/09/11 00:23:20;;;;;;;;;;;;;;;;;;348638;28;954;-65
2022/09/11 00:23:30;;;;;;;;;;;;;;;;;;348590;28;917;-65
2022/09/11 00:23:40;;;;;;;;;;;;;;;;;;348660;28;904;-65
2022/09/11 00:23:52;;;;;;;;;;;;;;;;;;348667;28;913;-65
2022/09/11 00:24:03;;;;;;;;;;;;;;;;;;348653;28;869;-65
2022/09/11 00:24:13;;;;;;;;;;;;;;;;;;348651;28;865;-65
2022/09/11 00:24:23;;;;;;;;;;;;;;;;;;349397;28;1392;-65
2022/09/11 00:24:34;;;;;;;;;;;;;;;;;;350031;28;952;-64
2022/09/11 00:24:44;;;;;;;;;;;;;;;;;;350052;28;976;-65
2022/09/11 00:24:54;;;;;;;;;;;;;;;;;;349954;28;1031;-64
2022/09/11 00:25:04;;;;;;;;;;;;;;;;;;349968;28;964;-64
2022/09/11 00:25:15;;;;;;;;;;;;;;;;;;350012;28;936;-65
2022/09/11 00:25:25;;;;;;;;;;;;;;;;;;350042;28;952;-65
2022/09/11 00:25:39;;;;;;;;;;;;;;;;;;350008;28;816;-65
2022/09/11 00:25:50;;;;;;;;;;;;;;;;;;350012;28;779;-64
2022/09/11 00:26:01;;;;;;;;;;;;;;;;;;350012;28;913;-65
2022/09/11 00:26:11;;;;;;;;;;;;;;;;;;349965;28;1023;-65
2022/09/11 00:26:23;;;;;;;;;;;;;;;;;;349995;28;924;-65
2022/09/11 00:26:33;;;;;;;;;;;;;;;;;;350035;28;936;-65
2022/09/11 00:26:46;;;;;;;;;;;;;;;;;;350021;28;932;-64
2022/09/11 00:26:56;;;;;;;;;;;;;;;;;;349982;28;956;-65
2022/09/11 00:27:06;;;;;;;;;;;;;;;;;;349923;28;764;-65
2022/09/11 00:27:17;;;;;;;;;;;;;;;;;;350049;28;916;-65
2022/09/11 00:27:27;;;;;;;;;;;;;;;;;;350026;28;971;-65
2022/09/11 00:27:37;;;;;;;;;;;;;;;;;;350000;28;894;-65
2022/09/11 00:27:49;;;;;;;;;;;;;;;;;;349937;28;912;-65
2022/09/11 00:27:59;;;;;;;;;;;;;;;;;;349994;28;952;-64
2022/09/11 00:28:10;;;;;;;;;;;;;;;;;;350001;28;979;-64
2022/09/11 00:28:22;;;;;;;;;;;;;;;;;;350046;28;916;-65
2022/09/11 00:28:33;;;;;;;;;;;;;;;;;;350035;28;817;-65
2022/09/11 00:28:44;;;;;;;;;;;;;;;;;;349969;28;935;-65
2022/09/11 00:28:54;;;;;;;;;;;;;;;;;;350012;28;960;-65
2022/09/11 00:29:04;;;;;;;;;;;;;;;;;;350029;28;949;-65
2022/09/11 00:29:14;;;;;;;;;;;;;;;;;;349226;28;1911;-64
2022/09/11 00:29:24;;;;;;;;;;;;;;;;;;349859;28;1502;-65
2022/09/11 00:29:35;;;;;;;;;;;;;;;;;;349961;28;936;-65
2022/09/11 00:29:45;;;;;;;;;;;;;;;;;;349978;28;987;-65
2022/09/11 00:29:55;;;;;;;;;;;;;;;;;;349994;28;924;-65
2022/09/11 00:30:05;;;;;;;;;;;;;;;;;;349979;28;1019;-64
2022/09/11 00:30:16;;;;;;;;;;;;;;;;;;349281;28;1778;-65
2022/09/11 00:30:27;;;;;;;;;;;;;;;;;;349198;28;1078;-64
2022/09/11 00:30:37;;;;;;;;;;;;;;;;;;348657;28;979;-65
2022/09/11 00:30:55;;;;;;;;;;;;;;;;;;348615;28;883;-65
2022/09/11 00:31:07;;;;;;;;;;;;;;;;;;348654;28;972;-65
2022/09/11 00:31:19;;;;;;;;;;;;;;;;;;348648;28;990;-65
2022/09/11 00:31:31;;;;;;;;;;;;;;;;;;348542;28;1910;-65
2022/09/11 00:31:41;;;;;;;;;;;;;;;;;;348648;28;917;-65
2022/09/11 00:31:51;;;;;;;;;;;;;;;;;;348622;28;988;-64
2022/09/11 00:32:01;;;;;;;;;;;;;;;;;;348605;28;921;-65
2022/09/11 00:32:12;;;;;;;;;;;;;;;;;;349237;28;1731;-64
2022/09/11 00:32:22;;;;;;;;;;;;;;;;;;351435;28;800;-64
2022/09/11 00:32:32;;;;;;;;;;;;;;;;;;351424;28;901;-64
2022/09/11 00:32:43;;;;;;;;;;;;;;;;;;351412;28;962;-64
2022/09/11 00:32:53;;;;;;;;;;;;;;;;;;351373;28;921;-65
2022/09/11 00:33:04;;;;;;;;;;;;;;;;;;351429;28;793;-64
2022/09/11 00:33:14;;;;;;;;;;;;;;;;;;351364;28;939;-65
2022/09/11 00:33:26;;;;;;;;;;;;;;;;;;351416;28;924;-65
2022/09/11 00:33:37;;;;;;;;;;;;;;;;;;351377;28;959;-64
2022/09/11 00:33:47;;;;;;;;;;;;;;;;;;351410;28;925;-64
2022/09/11 00:33:57;;;;;;;;;;;;;;;;;;351358;28;1075;-65
2022/09/11 00:34:07;;;;;;;;;;;;;;;;;;351351;28;857;-65
2022/09/11 00:34:17;;;;;;;;;;;;;;;;;;351383;28;913;-65
2022/09/11 00:34:27;;;;;;;;;;;;;;;;;;351391;28;1004;-65
2022/09/11 00:34:38;;;;;;;;;;;;;;;;;;351459;28;841;-65
2022/09/11 00:34:48;;;;;;;;;;;;;;;;;;351339;28;968;-64
2022/09/11 00:34:59;;;;;;;;;;;;;;;;;;351397;28;1003;-65
2022/09/11 00:35:09;;;;;;;;;;;;;;;;;;351410;28;928;-64
2022/09/11 00:35:19;;;;;;;;;;;;;;;;;;351398;28;770;-65
2022/09/11 00:35:29;;;;;;;;;;;;;;;;;;351381;28;1059;-65
2022/09/11 00:35:40;;;;;;;;;;;;;;;;;;351387;28;951;-65
2022/09/11 00:35:57;;;;;;;;;;;;;;;;;;351390;28;856;-65
2022/09/11 00:36:11;;;;;;;;;;;;;;;;;;351323;28;984;-64
2022/09/11 00:36:24;;;;;;;;;;;;;;;;;;351306;28;1370;-64
2022/09/11 00:36:36;;;;;;;;;;;;;;;;;;351426;28;853;-64
2022/09/11 00:36:47;;;;;;;;;;;;;;;;;;351340;28;972;-65
2022/09/11 00:36:57;;;;;;;;;;;;;;;;;;351448;28;1021;-65
2022/09/11 00:37:08;;;;;;;;;;;;;;;;;;351365;28;908;-65
2022/09/11 00:37:18;;;;;;;;;;;;;;;;;;351397;28;949;-64
2022/09/11 00:37:28;;;;;;;;;;;;;;;;;;351336;28;1037;-64
2022/09/11 00:37:38;;;;;;;;;;;;;;;;;;351410;28;845;-65
2022/09/11 00:37:49;;;;;;;;;;;;;;;;;;351376;28;956;-65
2022/09/11 00:37:59;;;;;;;;;;;;;;;;;;351371;28;975;-65
2022/09/11 00:38:10;;;;;;;;;;;;;;;;;;351326;28;916;-65
2022/09/11 00:38:20;;;;;;;;;;;;;;;;;;351405;28;904;-65
2022/09/11 00:38:32;;;;;;;;;;;;;;;;;;351393;28;967;-65
2022/09/11 00:38:42;;;;;;;;;;;;;;;;;;351382;28;932;-65
2022/09/11 00:38:52;;;;;;;;;;;;;;;;;;351385;28;913;-64
2022/09/11 00:39:03;;;;;;;;;;;;;;;;;;351459;28;821;-65
2022/09/11 00:39:13;;;;;;;;;;;;;;;;;;351314;28;1031;-65
2022/09/11 00:39:23;;;;;;;;;;;;;;;;;;351349;28;924;-64
2022/09/11 00:39:34;;;;;;;;;;;;;;;;;;351390;28;944;-65
2022/09/11 00:39:44;;;;;;;;;;;;;;;;;;351399;28;812;-64
2022/09/11 00:39:54;;;;;;;;;;;;;;;;;;351431;28;908;-65
2022/09/11 00:40:05;;;;;;;;;;;;;;;;;;351446;28;761;-65
2022/09/11 00:40:16;;;;;;;;;;;;;;;;;;351312;28;971;-65
2022/09/11 00:40:26;;;;;;;;;;;;;;;;;;351361;28;928;-65
2022/09/11 00:40:44;;;;;;;;;;;;;;;;;;351488;28;837;-64
2022/09/11 00:40:56;;;;;;;;;;;;;;;;;;351393;28;889;-65
2022/09/11 00:41:09;;;;;;;;;;;;;;;;;;351413;28;873;-65
2022/09/11 00:41:24;;;;;;;;;;;;;;;;;;351390;28;892;-65
2022/09/11 00:41:36;;;;;;;;;;;;;;;;;;351418;28;944;-64
2022/09/11 00:41:46;;;;;;;;;;;;;;;;;;351378;28;868;-65
2022/09/11 00:41:57;;;;;;;;;;;;;;;;;;351420;28;873;-64
2022/09/11 00:42:08;;;;;;;;;;;;;;;;;;351394;28;885;-65
2022/09/11 00:42:18;;;;;;;;;;;;;;;;;;351364;28;932;-64
2022/09/11 00:42:29;;;;;;;;;;;;;;;;;;351364;28;916;-64
2022/09/11 00:42:39;;;;;;;;;;;;;;;;;;351325;28;940;-65
2022/09/11 00:42:52;;;;;;;;;;;;;;;;;;351438;28;957;-64
2022/09/11 00:43:03;;;;;;;;;;;;;;;;;;351371;28;832;-65
2022/09/11 00:43:14;;;;;;;;;;;;;;;;;;351390;28;1004;-65
2022/09/11 00:43:25;;;;;;;;;;;;;;;;;;351373;28;925;-64
2022/09/11 00:43:56;;;;;;;;;;;;;;;;;;351330;28;1038;-65
2022/09/11 00:44:06;;;;;;;;;;;;;;;;;;351344;28;1015;-65
2022/09/11 00:44:16;;;;;;;;;;;;;;;;;;351387;28;816;-65
2022/09/11 00:44:27;;;;;;;;;;;;;;;;;;350215;28;1879;-65
2022/09/11 00:44:37;;;;;;;;;;;;;;;;;;348534;28;1705;-65
2022/09/11 00:44:47;;;;;;;;;;;;;;;;;;348660;28;830;-65
2022/09/11 00:44:59;;;;;;;;;;;;;;;;;;348673;28;790;-65
2022/09/11 00:45:19;;;;;;;;;;;;;;;;;;348623;28;940;-64
2022/09/11 00:45:31;;;;;;;;;;;;;;;;;;348550;28;892;-65
2022/09/11 00:45:42;;;;;;;;;;;;;;;;;;348602;28;1011;-64
2022/09/11 00:45:57;;;;;;;;;;;;;;;;;;348632;28;964;-65
2022/09/11 00:46:07;;;;;;;;;;;;;;;;;;348569;28;1023;-65
2022/09/11 00:46:18;;;;;;;;;;;;;;;;;;348622;28;992;-65
2022/09/11 00:46:30;;;;;;;;;;;;;;;;;;348541;28;862;-65
2022/09/11 00:46:43;;;;;;;;;;;;;;;;;;348630;28;880;-65
2022/09/11 00:46:55;;;;;;;;;;;;;;;;;;348637;28;945;-65
2022/09/11 00:47:08;;;;;;;;;;;;;;;;;;348564;28;960;-65
2022/09/11 00:47:18;;;;;;;;;;;;;;;;;;348624;28;953;-65
2022/09/11 00:47:30;;;;;;;;;;;;;;;;;;348610;28;816;-65
2022/09/11 00:47:40;;;;;;;;;;;;;;;;;;348646;28;820;-64
2022/09/11 00:47:52;;;;;;;;;;;;;;;;;;348612;28;866;-65
2022/09/11 00:48:02;;;;;;;;;;;;;;;;;;348599;28;956;-65
2022/09/11 00:48:16;;;;;;;;;;;;;;;;;;348629;28;1011;-65
2022/09/11 00:48:29;;;;;;;;;;;;;;;;;;348603;28;952;-64
2022/09/11 00:48:39;;;;;;;;;;;;;;;;;;348548;28;1066;-64
2022/09/11 00:48:50;;;;;;;;;;;;;;;;;;348606;28;899;-65
2022/09/11 00:49:02;;;;;;;;;;;;;;;;;;348605;28;790;-64
2022/09/11 00:49:21;;;;;;;;;;;;;;;;;;348639;28;866;-65
2022/09/11 00:49:31;;;;;;;;;;;;;;;;;;348570;28;949;-65
2022/09/11 00:49:43;;;;;;;;;;;;;;;;;;348607;28;937;-65
2022/09/11 00:49:57;;;;;;;;;;;;;;;;;;348597;28;807;-64
2022/09/11 00:50:11;;;;;;;;;;;;;;;;;;348604;28;917;-65
2022/09/11 00:50:23;;;;;;;;;;;;;;;;;;348631;28;960;-64
2022/09/11 00:50:33;;;;;;;;;;;;;;;;;;348456;28;1189;-65
2022/09/11 00:50:43;;;;;;;;;;;;;;;;;;348563;28;984;-64
2022/09/11 00:50:54;;;;;;;;;;;;;;;;;;348658;28;932;-65
2022/09/11 00:51:05;;;;;;;;;;;;;;;;;;348518;28;1252;-65
2022/09/11 00:51:21;;;;;;;;;;;;;;;;;;348592;28;917;-65
2022/09/11 00:51:32;;;;;;;;;;;;;;;;;;348636;28;794;-65
2022/09/11 00:51:45;;;;;;;;;;;;;;;;;;348632;28;996;-64
2022/09/11 00:52:16;;;;;;;;;;;;;;;;;;348638;28;987;-65
2022/09/11 00:52:28;;;;;;;;;;;;;;;;;;348562;28;976;-64
2022/09/11 00:52:48;;;;;;;;;;;;;;;;;;348566;28;969;-65
2022/09/11 00:53:01;;;;;;;;;;;;;;;;;;348599;28;999;-65
2022/09/11 00:53:13;;;;;;;;;;;;;;;;;;348569;28;1000;-65
2022/09/11 00:53:25;;;;;;;;;;;;;;;;;;348606;28;944;-64
2022/09/11 00:53:36;;;;;;;;;;;;;;;;;;348645;28;1102;-64
2022/09/11 00:53:48;;;;;;;;;;;;;;;;;;348577;28;944;-65
2022/09/11 00:53:58;;;;;;;;;;;;;;;;;;348576;28;1011;-65
2022/09/11 00:54:11;;;;;;;;;;;;;;;;;;348594;28;953;-65
2022/09/11 00:54:26;;;;;;;;;;;;;;;;;;348529;28;832;-64
2022/09/11 00:54:40;;;;;;;;;;;;;;;;;;348471;28;778;-65
2022/09/11 00:54:53;;;;;;;;;;;;;;;;;;348328;28;988;-65
2022/09/11 00:55:09;;;;;;;;;;;;;;;;;;348465;28;980;-64
2022/09/11 00:55:21;;;;;;;;;;;;;;;;;;348580;28;925;-65
2022/09/11 00:55:34;;;;;;;;;;;;;;;;;;348655;28;778;-65
2022/09/11 00:55:49;;;;;;;;;;;;;;;;;;348517;28;988;-65
2022/09/11 00:56:01;;;;;;;;;;;;;;;;;;348592;28;925;-65
2022/09/11 00:56:11;;;;;;;;;;;;;;;;;;348578;28;968;-65
2022/09/11 00:56:23;;;;;;;;;;;;;;;;;;348575;28;940;-64
2022/09/11 00:56:36;;;;;;;;;;;;;;;;;;348414;28;1877;-64
2022/09/11 00:56:47;;;;;;;;;;;;;;;;;;348523;28;928;-65
2022/09/11 00:56:59;;;;;;;;;;;;;;;;;;348564;28;853;-65
2022/09/11 00:57:09;;;;;;;;;;;;;;;;;;348544;28;1058;-64
2022/09/11 00:57:21;;;;;;;;;;;;;;;;;;348614;28;932;-64
2022/09/11 00:57:32;;;;;;;;;;;;;;;;;;348596;28;909;-64
2022/09/11 00:57:49;;;;;;;;;;;;;;;;;;348523;28;909;-65
2022/09/11 00:58:02;;;;;;;;;;;;;;;;;;348643;28;838;-64
2022/09/11 00:58:16;;;;;;;;;;;;;;;;;;348580;28;851;-64
2022/09/11 00:58:29;;;;;;;;;;;;;;;;;;348608;28;916;-65
2022/09/11 00:58:41;;;;;;;;;;;;;;;;;;348608;28;867;-65
2022/09/11 00:58:53;;;;;;;;;;;;;;;;;;348580;28;980;-65
2022/09/11 00:59:04;;;;;;;;;;;;;;;;;;348517;28;929;-65
2022/09/11 00:59:15;;;;;;;;;;;;;;;;;;348186;28;1672;-64
2022/09/11 00:59:28;;;;;;;;;;;;;;;;;;349763;28;1345;-65
2022/09/11 00:59:40;;;;;;;;;;;;;;;;;;349938;28;925;-65
2022/09/11 00:59:53;;;;;;;;;;;;;;;;;;349943;28;941;-64
2022/09/11 01:00:04;;;;;;;;;;;;;;;;;;349996;28;847;-65
2022/09/11 01:00:14;;;;;;;;;;;;;;;;;;350016;28;909;-65
2022/09/11 01:00:24;;;;;;;;;;;;;;;;;;349972;28;887;-64
2022/09/11 01:00:35;;;;;;;;;;;;;;;;;;350015;28;971;-65
2022/09/11 01:00:46;;;;;;;;;;;;;;;;;;350027;28;904;-65
2022/09/11 01:00:57;;;;;;;;;;;;;;;;;;350002;28;905;-65
2022/09/11 01:01:07;;;;;;;;;;;;;;;;;;349887;28;924;-65
2022/09/11 01:01:18;;;;;;;;;;;;;;;;;;349956;28;1043;-65
2022/09/11 01:01:28;;;;;;;;;;;;;;;;;;349997;28;875;-65
2022/09/11 01:01:38;;;;;;;;;;;;;;;;;;349978;28;932;-65
2022/09/11 01:01:48;;;;;;;;;;;;;;;;;;349943;28;929;-65
2022/09/11 01:01:59;;;;;;;;;;;;;;;;;;349979;28;988;-64
2022/09/11 01:02:12;;;;;;;;;;;;;;;;;;349992;28;948;-65
2022/09/11 01:02:24;;;;;;;;;;;;;;;;;;349988;28;936;-65
2022/09/11 01:02:35;;;;;;;;;;;;;;;;;;349991;28;945;-65
2022/09/11 01:02:46;;;;;;;;;;;;;;;;;;349989;28;917;-64
2022/09/11 01:02:57;;;;;;;;;;;;;;;;;;350005;28;1048;-64
2022/09/11 01:03:07;;;;;;;;;;;;;;;;;;349846;28;1023;-65
2022/09/11 01:03:18;;;;;;;;;;;;;;;;;;349965;28;896;-65
2022/09/11 01:03:30;;;;;;;;;;;;;;;;;;349971;28;972;-64
2022/09/11 01:03:41;;;;;;;;;;;;;;;;;;350006;28;916;-65
2022/09/11 01:03:51;;;;;;;;;;;;;;;;;;349743;28;1128;-65
2022/09/11 01:04:03;;;;;;;;;;;;;;;;;;349954;28;881;-65
2022/09/11 01:04:13;;;;;;;;;;;;;;;;;;349986;28;881;-65
2022/09/11 01:04:23;;;;;;;;;;;;;;;;;;350008;28;955;-65
2022/09/11 01:04:34;;;;;;;;;;;;;;;;;;350015;28;793;-64
2022/09/11 01:04:44;;;;;;;;;;;;;;;;;;349992;28;952;-65
2022/09/11 01:04:55;;;;;;;;;;;;;;;;;;349912;28;881;-65
2022/09/11 01:05:06;;;;;;;;;;;;;;;;;;349927;28;1686;-65
2022/09/11 01:05:17;;;;;;;;;;;;;;;;;;349926;28;1003;-65
2022/09/11 01:05:32;;;;;;;;;;;;;;;;;;349948;28;1011;-65
2022/09/11 01:05:43;;;;;;;;;;;;;;;;;;349936;28;976;-64
2022/09/11 01:05:53;;;;;;;;;;;;;;;;;;349966;28;806;-65
2022/09/11 01:06:03;;;;;;;;;;;;;;;;;;349768;28;1864;-65
2022/09/11 01:06:14;;;;;;;;;;;;;;;;;;349619;28;1335;-64
2022/09/11 01:06:24;;;;;;;;;;;;;;;;;;350029;28;865;-64
2022/09/11 01:06:35;;;;;;;;;;;;;;;;;;349987;28;811;-65
2022/09/11 01:06:45;;;;;;;;;;;;;;;;;;349974;28;909;-64
2022/09/11 01:06:56;;;;;;;;;;;;;;;;;;349958;28;979;-64
2022/09/11 01:07:06;;;;;;;;;;;;;;;;;;349973;28;802;-65
2022/09/11 01:07:18;;;;;;;;;;;;;;;;;;349949;28;1202;-64
2022/09/11 01:07:29;;;;;;;;;;;;;;;;;;349942;28;945;-65
2022/09/11 01:07:40;;;;;;;;;;;;;;;;;;349983;28;917;-65
2022/09/11 01:07:53;;;;;;;;;;;;;;;;;;350000;28;802;-65
2022/09/11 01:08:03;;;;;;;;;;;;;;;;;;349980;28;1046;-65
2022/09/11 01:08:13;;;;;;;;;;;;;;;;;;348400;28;1805;-64
2022/09/11 01:08:24;;;;;;;;;;;;;;;;;;348589;28;1024;-65
2022/09/11 01:08:34;;;;;;;;;;;;;;;;;;348556;28;1104;-65
2022/09/11 01:08:44;;;;;;;;;;;;;;;;;;348615;28;836;-64
2022/09/11 01:08:54;;;;;;;;;;;;;;;;;;348554;28;988;-64
2022/09/11 01:09:04;;;;;;;;;;;;;;;;;;348549;28;913;-64
2022/09/11 01:09:15;;;;;;;;;;;;;;;;;;348416;28;1778;-65
2022/09/11 01:09:26;;;;;;;;;;;;;;;;;;348512;28;980;-64
2022/09/11 01:09:36;;;;;;;;;;;;;;;;;;348615;28;932;-65
2022/09/11 01:09:47;;;;;;;;;;;;;;;;;;348617;28;1004;-64
2022/09/11 01:09:58;;;;;;;;;;;;;;;;;;348527;28;917;-65
2022/09/11 01:10:09;;;;;;;;;;;;;;;;;;348572;28;1027;-64
2022/09/11 01:10:25;;;;;;;;;;;;;;;;;;348579;28;1061;-64
2022/09/11 01:10:44;;;;;;;;;;;;;;;;;;348649;28;916;-64
2022/09/11 01:11:00;;;;;;;;;;;;;;;;;;348602;28;979;-65
2022/09/11 01:11:29;;;;;;;;;;;;;;;;;;348658;28;921;-64
2022/09/11 01:11:39;;;;;;;;;;;;;;;;;;348528;28;917;-64
2022/09/11 01:11:58;;;;;;;;;;;;;;;;;;348606;28;779;-65
2022/09/11 01:12:24;;;;;;;;;;;;;;;;;;348527;28;920;-65
2022/09/11 01:12:45;;;;;;;;;;;;;;;;;;348594;28;1012;-64
2022/09/11 01:13:04;;;;;;;;;;;;;;;;;;348569;28;998;-64
2022/09/11 01:13:16;;;;;;;;;;;;;;;;;;348581;28;932;-64
2022/09/11 01:13:41;;;;;;;;;;;;;;;;;;348568;28;917;-65
2022/09/11 01:14:13;;;;;;;;;;;;;;;;;;348528;28;968;-65
2022/09/11 01:14:43;;;;;;;;;;;;;;;;;;348570;28;917;-64
2022/09/11 01:15:00;;;;;;;;;;;;;;;;;;348605;28;822;-64
2022/09/11 01:15:10;;;;;;;;;;;;;;;;;;348528;28;964;-65
2022/09/11 01:15:28;;;;;;;;;;;;;;;;;;348589;28;969;-64
2022/09/11 01:16:01;;;;;;;;;;;;;;;;;;348442;28;1041;-65
2022/09/11 01:16:23;;;;;;;;;;;;;;;;;;348566;28;929;-65
2022/09/11 01:16:39;;;;;;;;;;;;;;;;;;348568;28;1055;-65
2022/09/11 01:17:07;;;;;;;;;;;;;;;;;;348555;28;925;-65
2022/09/11 01:17:28;;;;;;;;;;;;;;;;;;348559;28;1047;-65
2022/09/11 01:17:48;;;;;;;;;;;;;;;;;;349006;28;1721;-64
2022/09/11 01:18:18;;;;;;;;;;;;;;;;;;348563;28;1210;-65
2022/09/11 01:18:32;;;;;;;;;;;;;;;;;;348534;28;1037;-64
2022/09/11 01:19:00;;;;;;;;;;;;;;;;;;348594;28;1019;-64
2022/09/11 01:19:17;;;;;;;;;;;;;;;;;;348477;28;1574;-64
2022/09/11 01:19:46;;;;;;;;;;;;;;;;;;348479;28;1016;-65
2022/09/11 01:20:14;;;;;;;;;;;;;;;;;;348448;28;988;-64
2022/09/11 01:20:46;;;;;;;;;;;;;;;;;;348570;28;940;-64
2022/09/11 01:21:15;;;;;;;;;;;;;;;;;;349811;28;1468;-64
2022/09/11 01:21:34;;;;;;;;;;;;;;;;;;351277;28;1020;-64
2022/09/11 01:21:58;;;;;;;;;;;;;;;;;;351336;28;987;-64
2022/09/11 01:22:09;;;;;;;;;;;;;;;;;;351348;28;967;-65
2022/09/11 01:22:32;;;;;;;;;;;;;;;;;;351390;28;782;-65
2022/09/11 01:23:01;;;;;;;;;;;;;;;;;;351313;28;948;-65
2022/09/11 01:23:31;;;;;;;;;;;;;;;;;;351344;28;770;-64
2022/09/11 01:23:45;;;;;;;;;;;;;;;;;;351376;28;794;-64
2022/09/11 01:24:01;;;;;;;;;;;;;;;;;;351331;28;869;-65
2022/09/11 01:24:24;;;;;;;;;;;;;;;;;;351296;28;964;-65
2022/09/11 01:24:52;;;;;;;;;;;;;;;;;;348542;28;937;-64
2022/09/11 01:25:03;;;;;;;;;;;;;;;;;;348588;28;817;-65
2022/09/11 01:25:16;;;;;;;;;;;;;;;;;;348576;28;799;-65
2022/09/11 01:25:35;;;;;;;;;;;;;;;;;;348527;28;917;-65
2022/09/11 01:25:57;;;;;;;;;;;;;;;;;;348570;28;968;-64
2022/09/11 01:26:31;;;;;;;;;;;;;;;;;;348535;28;960;-64
2022/09/11 01:26:51;;;;;;;;;;;;;;;;;;348498;28;1090;-65
2022/09/11 01:27:20;;;;;;;;;;;;;;;;;;348586;28;933;-64
2022/09/11 01:27:38;;;;;;;;;;;;;;;;;;348523;28;921;-65
2022/09/11 01:27:59;;;;;;;;;;;;;;;;;;348605;28;992;-64
2022/09/11 01:28:14;;;;;;;;;;;;;;;;;;348460;28;858;-65
2022/09/11 01:28:51;;;;;;;;;;;;;;;;;;348442;28;1877;-65
2022/09/11 01:29:05;;;;;;;;;;;;;;;;;;350169;28;1111;-65
2022/09/11 01:29:24;;;;;;;;;;;;;;;;;;348359;28;1767;-65
2022/09/11 01:29:40;;;;;;;;;;;;;;;;;;348495;28;1055;-65
2022/09/11 01:29:54;;;;;;;;;;;;;;;;;;348563;28;905;-64
2022/09/11 01:30:05;;;;;;;;;;;;;;;;;;348573;28;964;-64
2022/09/11 01:30:19;;;;;;;;;;;;;;;;;;348492;28;975;-64
2022/09/11 01:30:41;;;;;;;;;;;;;;;;;;348607;28;917;-64
2022/09/11 01:30:54;;;;;;;;;;;;;;;;;;348072;28;1704;-65